createdAt,value
2022-10-02T00:01:19.573Z,12.07
2022-10-02T00:03:48.843Z,12.03
2022-10-02T00:06:21.327Z,12.00
2022-10-02T00:08:51.916Z,12.00
2022-10-02T00:11:24.806Z,11.97
2022-10-02T00:13:55.469Z,11.96
2022-10-02T00:16:32.140Z,11.97
2022-10-02T00:18:59.392Z,12.00
2022-10-02T00:21:38.794Z,11.93
2022-10-02T00:24:11.887Z,11.89
2022-10-02T00:26:46.837Z,11.81
2022-10-02T00:29:28.990Z,11.85
2022-10-02T00:32:10.612Z,11.79
2022-10-02T00:34:46.812Z,11.84
2022-10-02T00:37:20.943Z,11.83
2022-10-02T00:40:02.071Z,11.72
2022-10-02T00:42:57.766Z,11.70
2022-10-02T00:45:50.579Z,11.67
2022-10-02T00:48:40.872Z,11.67
2022-10-02T00:51:20.261Z,11.72
2022-10-02T00:53:54.272Z,11.70
2022-10-02T00:56:31.303Z,11.68
2022-10-02T00:59:39.850Z,11.70
2022-10-02T01:02:14.593Z,11.64
2022-10-02T01:04:42.476Z,11.68
2022-10-02T01:07:13.305Z,11.65
2022-10-02T01:09:42.039Z,11.74
2022-10-02T01:12:09.861Z,11.67
2022-10-02T01:14:39.254Z,11.64
2022-10-02T01:17:20.488Z,11.57
2022-10-02T01:19:48.020Z,11.56
2022-10-02T01:22:23.688Z,11.60
2022-10-02T01:24:53.058Z,11.58
2022-10-02T01:27:21.360Z,11.51
2022-10-02T01:29:55.708Z,11.57
2022-10-02T01:32:26.123Z,11.41
2022-10-02T01:34:54.220Z,11.32
2022-10-02T01:37:22.787Z,11.30
2022-10-02T01:39:50.358Z,11.29
2022-10-02T01:42:21.499Z,11.23
2022-10-02T01:44:49.070Z,11.14
2022-10-02T01:47:20.008Z,11.06
2022-10-02T01:50:00.826Z,11.02
2022-10-02T01:52:41.178Z,11.02
2022-10-02T01:55:22.545Z,10.98
2022-10-02T01:58:11.814Z,10.93
2022-10-02T02:00:51.795Z,10.90
2022-10-02T02:03:24.306Z,10.85
2022-10-02T02:05:56.346Z,10.79
2022-10-02T02:08:31.945Z,10.75
2022-10-02T02:11:10.497Z,10.71
2022-10-02T02:13:45.794Z,10.79
2022-10-02T02:16:22.251Z,10.69
2022-10-02T02:18:54.087Z,10.58
2022-10-02T02:21:25.178Z,10.53
2022-10-02T02:23:54.982Z,10.67
2022-10-02T02:26:24.860Z,10.68
2022-10-02T02:28:57.663Z,10.65
2022-10-02T02:31:31.225Z,10.63
2022-10-02T02:34:01.671Z,10.63
2022-10-02T02:36:33.547Z,10.58
2022-10-02T02:39:06.088Z,10.61
2022-10-02T02:41:35.695Z,10.58
2022-10-02T02:44:10.487Z,10.56
2022-10-02T02:47:10.828Z,10.57
2022-10-02T02:49:49.529Z,10.58
2022-10-02T02:52:20.891Z,10.61
2022-10-02T02:54:54.202Z,10.52
2022-10-02T02:57:27.760Z,10.50
2022-10-02T03:00:00.876Z,10.54
2022-10-02T03:02:28.276Z,10.53
2022-10-02T03:04:55.531Z,10.54
2022-10-02T03:07:22.925Z,10.52
2022-10-02T03:10:01.654Z,10.52
2022-10-02T03:12:48.592Z,10.57
2022-10-02T03:15:35.747Z,10.66
2022-10-02T03:18:20.268Z,10.56
2022-10-02T03:20:57.353Z,10.61
2022-10-02T03:23:30.063Z,10.59
2022-10-02T03:26:03.230Z,10.50
2022-10-02T03:28:54.520Z,10.48
2022-10-02T03:31:25.146Z,10.51
2022-10-02T03:33:54.407Z,10.48
2022-10-02T03:36:22.629Z,10.53
2022-10-02T03:39:06.489Z,10.50
2022-10-02T03:41:39.485Z,10.52
2022-10-02T03:44:06.843Z,10.54
2022-10-02T03:46:35.801Z,10.57
2022-10-02T03:49:03.401Z,10.56
2022-10-02T03:51:31.092Z,10.56
2022-10-02T03:53:58.275Z,10.55
2022-10-02T03:56:36.670Z,10.56
2022-10-02T03:59:10.701Z,10.50
2022-10-02T04:01:48.195Z,10.47
2022-10-02T04:04:21.728Z,10.42
2022-10-02T04:06:52.021Z,10.48
2022-10-02T04:09:25.817Z,10.46
2022-10-02T04:11:59.765Z,10.49
2022-10-02T04:14:33.957Z,10.51
2022-10-02T04:17:06.087Z,10.47
2022-10-02T04:19:39.172Z,10.49
2022-10-02T04:22:11.928Z,10.35
2022-10-02T04:24:45.697Z,10.37
2022-10-02T04:27:17.438Z,10.35
2022-10-02T04:29:52.326Z,10.27
2022-10-02T04:32:26.770Z,10.31
2022-10-02T04:34:54.756Z,10.22
2022-10-02T04:37:44.723Z,10.17
2022-10-02T04:40:30.643Z,10.16
2022-10-02T04:43:14.454Z,10.19
2022-10-02T04:46:07.485Z,10.14
2022-10-02T04:49:14.825Z,10.12
2022-10-02T04:52:00.934Z,10.11
2022-10-02T04:54:49.802Z,10.07
2022-10-02T04:57:31.275Z,10.08
2022-10-02T05:00:07.111Z,10.06
2022-10-02T05:03:01.387Z,10.07
2022-10-02T05:05:46.093Z,10.06
2022-10-02T05:08:42.378Z,10.06
2022-10-02T05:11:22.968Z,10.07
2022-10-02T05:14:11.420Z,10.05
2022-10-02T05:17:03.918Z,10.01
2022-10-02T05:19:50.970Z,10.01
2022-10-02T05:22:42.440Z,10.09
2022-10-02T05:25:23.674Z,10.06
2022-10-02T05:28:03.724Z,10.07
2022-10-02T05:30:38.401Z,10.01
2022-10-02T05:33:32.395Z,10.05
2022-10-02T05:36:25.750Z,10.10
2022-10-02T05:39:17.646Z,10.12
2022-10-02T05:41:52.451Z,10.09
2022-10-02T05:44:26.730Z,10.07
2022-10-02T05:47:01.864Z,10.06
2022-10-02T05:49:35.009Z,10.09
2022-10-02T05:52:06.961Z,10.12
2022-10-02T05:54:47.101Z,10.08
2022-10-02T05:57:21.544Z,10.17
2022-10-02T05:59:59.319Z,10.18
2022-10-02T06:02:38.809Z,10.16
2022-10-02T06:05:15.376Z,10.15
2022-10-02T06:07:46.294Z,10.08
2022-10-02T06:10:18.738Z,10.03
2022-10-02T06:12:52.459Z,10.06
2022-10-02T06:15:25.676Z,10.05
2022-10-02T06:17:58.311Z,10.08
2022-10-02T06:20:30.740Z,10.10
2022-10-02T06:23:04.080Z,10.15
2022-10-02T06:25:37.544Z,10.13
2022-10-02T06:28:14.189Z,10.10
2022-10-02T06:30:46.366Z,10.11
2022-10-02T06:33:19.308Z,10.13
2022-10-02T06:36:16.613Z,10.27
2022-10-02T06:39:02.437Z,10.17
2022-10-02T06:41:40.573Z,10.07
2022-10-02T06:44:17.816Z,10.08
2022-10-02T06:46:55.325Z,10.07
2022-10-02T06:49:39.678Z,10.10
2022-10-02T06:52:17.099Z,10.13
2022-10-02T06:55:01.164Z,10.23
2022-10-02T06:57:41.458Z,10.43
2022-10-02T07:00:16.491Z,10.42
2022-10-02T07:03:18.991Z,10.34
2022-10-02T07:06:10.915Z,10.34
2022-10-02T07:09:03.415Z,10.26
2022-10-02T07:11:35.935Z,10.24
2022-10-02T07:14:22.715Z,10.18
2022-10-02T07:17:11.119Z,10.21
2022-10-02T07:20:03.308Z,10.22
2022-10-02T07:22:46.256Z,10.25
2022-10-02T07:25:34.255Z,10.27
2022-10-02T07:28:11.170Z,10.28
2022-10-02T07:30:50.112Z,10.23
2022-10-02T07:33:29.913Z,10.18
2022-10-02T07:36:04.115Z,10.14
2022-10-02T07:38:45.806Z,10.14
2022-10-02T07:41:49.039Z,10.09
2022-10-02T07:44:27.654Z,10.08
2022-10-02T07:47:04.966Z,10.07
2022-10-02T07:49:50.944Z,9.99
2022-10-02T07:52:26.997Z,10.00
2022-10-02T07:55:09.012Z,9.99
2022-10-02T07:57:45.619Z,10.03
2022-10-02T08:00:15.175Z,10.10
2022-10-02T08:02:53.276Z,10.07
2022-10-02T08:05:24.388Z,10.11
2022-10-02T08:07:56.617Z,9.97
2022-10-02T08:10:29.224Z,9.86
2022-10-02T08:13:07.285Z,9.89
2022-10-02T08:15:38.764Z,9.77
2022-10-02T08:18:33.814Z,9.79
2022-10-02T08:21:03.720Z,9.79
2022-10-02T08:23:37.847Z,9.80
2022-10-02T08:26:09.927Z,9.83
2022-10-02T08:28:43.965Z,9.86
2022-10-02T08:31:12.628Z,10.00
2022-10-02T08:33:42.288Z,10.07
2022-10-02T08:36:44.422Z,10.31
2022-10-02T08:39:30.494Z,10.47
2022-10-02T08:42:39.610Z,10.54
2022-10-02T08:45:24.411Z,10.67
2022-10-02T08:48:23.746Z,10.70
2022-10-02T08:51:34.305Z,10.70
2022-10-02T08:54:26.974Z,10.81
2022-10-02T08:57:12.804Z,10.69
2022-10-02T09:00:08.925Z,10.69
2022-10-02T09:03:21.375Z,10.66
2022-10-02T09:06:27.100Z,10.62
2022-10-02T09:12:12.095Z,10.51
2022-10-02T09:15:05.083Z,10.44
2022-10-02T09:17:48.617Z,10.57
2022-10-02T09:20:44.689Z,10.60
2022-10-02T09:23:49.397Z,10.62
2022-10-02T09:26:57.966Z,10.60
2022-10-02T09:29:57.638Z,10.59
2022-10-02T09:33:17.184Z,10.57
2022-10-02T09:36:17.379Z,10.58
2022-10-02T09:39:14.507Z,10.62
2022-10-02T09:42:11.291Z,10.71
2022-10-02T09:45:12.751Z,10.78
2022-10-02T09:48:30.465Z,10.79
2022-10-02T09:51:40.268Z,10.95
2022-10-02T09:54:44.676Z,10.97
2022-10-02T09:57:31.891Z,11.05
2022-10-02T10:00:26.917Z,11.07
2022-10-02T10:03:37.220Z,11.11
2022-10-02T10:06:40.332Z,11.12
2022-10-02T10:09:41.765Z,11.31
2022-10-02T10:12:37.152Z,11.35
2022-10-02T10:15:42.187Z,11.40
2022-10-02T10:18:56.502Z,11.52
2022-10-02T10:21:59.206Z,11.63
2022-10-02T10:25:17.254Z,11.80
2022-10-02T10:28:08.297Z,12.00
2022-10-02T10:31:11.185Z,12.15
2022-10-02T10:34:11.311Z,12.24
2022-10-02T10:37:13.739Z,12.20
2022-10-02T10:40:21.342Z,12.11
2022-10-02T10:43:16.878Z,12.25
2022-10-02T10:46:10.183Z,12.37
2022-10-02T10:49:00.706Z,12.49
2022-10-02T10:51:33.989Z,12.73
2022-10-02T10:54:47.411Z,12.93
2022-10-02T10:57:41.909Z,13.09
2022-10-02T11:00:20.081Z,13.26
2022-10-02T11:03:12.989Z,13.57
2022-10-02T11:06:22.250Z,13.91
2022-10-02T11:09:26.552Z,13.75
2022-10-02T11:12:14.535Z,13.53
2022-10-02T11:14:59.464Z,13.45
2022-10-02T11:17:44.451Z,13.65
2022-10-02T11:20:31.809Z,13.81
2022-10-02T11:23:17.957Z,13.91
2022-10-02T11:26:13.974Z,13.76
2022-10-02T11:29:06.691Z,13.64
2022-10-02T11:32:03.909Z,13.50
2022-10-02T11:35:06.807Z,13.31
2022-10-02T11:37:49.859Z,13.32
2022-10-02T11:40:53.771Z,13.58
2022-10-02T11:43:46.981Z,13.93
2022-10-02T11:46:42.461Z,14.31
2022-10-02T11:49:36.007Z,14.78
2022-10-02T11:52:38.123Z,15.17
2022-10-02T11:55:22.419Z,15.48
2022-10-02T11:58:01.032Z,15.55
2022-10-02T12:00:47.755Z,15.65
2022-10-02T12:03:24.967Z,15.69
2022-10-02T12:06:03.036Z,15.79
2022-10-02T12:08:46.965Z,16.07
2022-10-02T12:11:23.517Z,16.22
2022-10-02T12:14:03.375Z,16.13
2022-10-02T12:16:45.937Z,15.92
2022-10-02T12:19:26.541Z,15.73
2022-10-02T12:22:26.661Z,15.52
2022-10-02T12:25:21.925Z,15.39
2022-10-02T12:28:00.603Z,15.31
2022-10-02T12:30:36.327Z,15.11
2022-10-02T12:33:33.060Z,14.98
2022-10-02T12:36:24.455Z,14.96
2022-10-02T12:39:04.296Z,14.78
2022-10-02T12:41:45.979Z,14.65
2022-10-02T12:44:45.041Z,14.61
2022-10-02T12:47:40.386Z,14.53
2022-10-02T12:50:23.502Z,14.40
2022-10-02T12:53:21.745Z,14.41
2022-10-02T12:56:06.873Z,14.42
2022-10-02T12:58:51.262Z,14.52
2022-10-02T13:02:11.200Z,14.69
2022-10-02T13:05:23.287Z,14.76
2022-10-02T13:08:18.287Z,15.01
2022-10-02T13:10:50.181Z,14.97
2022-10-02T13:13:35.497Z,14.76
2022-10-02T13:16:08.662Z,14.47
2022-10-02T13:19:01.567Z,14.17
2022-10-02T13:21:40.416Z,13.98
2022-10-02T13:24:23.649Z,13.72
2022-10-02T13:26:57.096Z,13.56
2022-10-02T13:29:56.493Z,13.49
2022-10-02T13:32:45.666Z,13.42
2022-10-02T13:35:36.130Z,13.24
2022-10-02T13:38:19.680Z,13.16
2022-10-02T13:40:53.498Z,13.17
2022-10-02T13:43:34.661Z,13.22
2022-10-02T13:46:13.055Z,13.21
2022-10-02T13:48:55.357Z,13.30
2022-10-02T13:51:31.884Z,13.40
2022-10-02T13:54:14.381Z,13.46
2022-10-02T13:56:50.979Z,13.51
2022-10-02T13:59:31.536Z,13.51
2022-10-02T14:02:30.859Z,13.52
2022-10-02T14:05:06.109Z,13.50
2022-10-02T14:07:56.761Z,13.50
2022-10-02T14:10:35.433Z,13.51
2022-10-02T14:13:19.049Z,13.52
2022-10-02T14:15:58.967Z,13.54
2022-10-02T14:19:01.200Z,13.56
2022-10-02T14:21:34.208Z,13.46
2022-10-02T14:25:00.859Z,13.46
2022-10-02T14:28:06.739Z,13.37
2022-10-02T14:30:50.648Z,13.39
2022-10-02T14:33:28.053Z,13.43
2022-10-02T14:36:03.150Z,13.40
2022-10-02T14:38:49.529Z,13.31
2022-10-02T14:41:37.226Z,13.24
2022-10-02T14:44:30.800Z,13.28
2022-10-02T14:47:18.661Z,13.21
2022-10-02T14:50:03.930Z,13.23
2022-10-02T14:52:52.017Z,13.24
2022-10-02T14:55:47.790Z,13.19
2022-10-02T14:58:29.266Z,13.18
2022-10-02T15:01:17.063Z,13.19
2022-10-02T15:04:23.125Z,13.18
2022-10-02T15:07:01.727Z,13.11
2022-10-02T15:09:35.219Z,13.04
2022-10-02T15:12:14.880Z,13.01
2022-10-02T15:14:56.126Z,12.94
2022-10-02T15:17:57.651Z,12.91
2022-10-02T15:20:39.137Z,12.92
2022-10-02T15:23:10.889Z,12.95
2022-10-02T15:25:58.447Z,12.93
2022-10-02T15:28:38.282Z,12.86
2022-10-02T15:31:18.137Z,12.90
2022-10-02T15:33:53.666Z,12.83
2022-10-02T15:36:48.977Z,12.80
2022-10-02T15:39:39.014Z,12.78
2022-10-02T15:42:08.846Z,12.74
2022-10-02T15:45:07.772Z,12.69
2022-10-02T15:47:58.113Z,12.65
2022-10-02T15:50:38.034Z,12.60
2022-10-02T15:53:38.759Z,12.53
2022-10-02T15:56:25.557Z,12.55
2022-10-02T15:59:08.866Z,12.52
2022-10-02T16:01:49.500Z,12.53
2022-10-02T16:04:30.130Z,12.53
2022-10-02T16:07:41.211Z,12.54
2022-10-02T16:10:20.808Z,12.53
2022-10-02T16:13:03.832Z,12.57
2022-10-02T16:15:46.343Z,12.55
2022-10-02T16:18:28.645Z,12.51
2022-10-02T16:21:31.250Z,12.53
2022-10-02T16:24:26.525Z,12.51
2022-10-02T16:27:12.624Z,12.51
2022-10-02T16:29:49.969Z,12.46
2022-10-02T16:32:31.197Z,12.43
2022-10-02T16:35:20.435Z,12.44
2022-10-02T16:37:59.859Z,12.34
2022-10-02T16:40:36.447Z,12.41
2022-10-02T16:43:41.537Z,12.36
2022-10-02T16:46:12.550Z,12.40
2022-10-02T16:48:48.174Z,12.39
2022-10-02T16:51:33.375Z,12.39
2022-10-02T16:54:13.119Z,12.41
2022-10-02T16:56:51.268Z,12.42
2022-10-02T16:59:24.279Z,12.45
2022-10-02T17:02:16.541Z,12.42
2022-10-02T17:04:54.222Z,12.37
2022-10-02T17:07:30.030Z,12.33
2022-10-02T17:10:08.057Z,12.34
2022-10-02T17:12:47.150Z,12.28
2022-10-02T17:15:22.107Z,12.26
2022-10-02T17:18:05.664Z,12.34
2022-10-02T17:20:41.205Z,12.30
2022-10-02T17:23:16.859Z,12.28
2022-10-02T17:25:53.198Z,12.24
2022-10-02T17:28:26.223Z,12.23
2022-10-02T17:31:23.713Z,12.17
2022-10-02T17:33:55.328Z,12.04
2022-10-02T17:36:33.248Z,11.98
2022-10-02T17:39:31.609Z,11.93
2022-10-02T17:42:13.865Z,11.90
2022-10-02T17:44:54.073Z,11.89
2022-10-02T17:47:48.279Z,11.77
2022-10-02T17:50:34.415Z,11.55
2022-10-02T17:53:30.918Z,11.29
2022-10-02T17:56:30.600Z,11.01
2022-10-02T17:59:13.973Z,10.89
2022-10-02T18:01:51.495Z,10.85
2022-10-02T18:04:24.483Z,10.75
2022-10-02T18:07:08.618Z,10.68
2022-10-02T18:09:47.252Z,10.65
2022-10-02T18:12:53.599Z,10.61
2022-10-02T18:15:34.104Z,10.63
2022-10-02T18:18:17.869Z,10.53
2022-10-02T18:20:57.287Z,10.57
2022-10-02T18:23:41.700Z,10.53
2022-10-02T18:26:26.513Z,10.43
2022-10-02T18:29:19.717Z,10.42
2022-10-02T18:32:06.605Z,10.45
2022-10-02T18:34:57.313Z,10.44
2022-10-02T18:37:40.795Z,10.43
2022-10-02T18:40:22.312Z,10.36
2022-10-02T18:43:13.463Z,10.40
2022-10-02T18:45:48.454Z,10.39
2022-10-02T18:48:49.892Z,10.36
2022-10-02T18:51:34.738Z,10.46
2022-10-02T18:54:11.807Z,10.44
2022-10-02T18:56:52.045Z,10.39
2022-10-02T18:59:30.677Z,10.31
2022-10-02T19:02:14.345Z,10.40
2022-10-02T19:04:55.067Z,10.35
2022-10-02T19:07:29.535Z,10.36
2022-10-02T19:10:26.360Z,10.36
2022-10-02T19:12:57.498Z,10.21
2022-10-02T19:15:28.234Z,10.28
2022-10-02T19:18:01.127Z,10.31
2022-10-02T19:20:40.353Z,10.30
2022-10-02T19:23:09.394Z,10.31
2022-10-02T19:25:36.596Z,10.31
2022-10-02T19:28:05.164Z,10.33
2022-10-02T19:30:34.096Z,10.28
2022-10-02T19:33:08.748Z,10.28
2022-10-02T19:35:43.699Z,10.27
2022-10-02T19:38:28.945Z,10.25
2022-10-02T19:40:58.674Z,10.21
2022-10-02T19:43:28.195Z,10.24
2022-10-02T19:45:59.501Z,10.29
2022-10-02T19:48:28.728Z,10.29
2022-10-02T19:50:59.833Z,10.36
2022-10-02T19:53:33.463Z,10.32
2022-10-02T19:56:04.784Z,10.30
2022-10-02T19:58:39.041Z,10.26
2022-10-02T20:01:15.882Z,10.30
2022-10-02T20:03:44.597Z,10.28
2022-10-02T20:06:17.810Z,10.11
2022-10-02T20:08:49.821Z,10.18
2022-10-02T20:11:21.464Z,10.24
2022-10-02T20:13:52.465Z,10.24
2022-10-02T20:16:41.257Z,10.27
2022-10-02T20:19:13.693Z,10.32
2022-10-02T20:21:45.170Z,10.37
2022-10-02T20:24:19.407Z,10.46
2022-10-02T20:26:47.889Z,10.49
2022-10-02T20:29:21.569Z,10.51
2022-10-02T20:31:53.542Z,10.55
2022-10-02T20:34:27.432Z,10.56
2022-10-02T20:37:02.577Z,10.59
2022-10-02T20:39:35.914Z,10.63
2022-10-02T20:42:10.053Z,10.66
2022-10-02T20:44:38.278Z,10.67
2022-10-02T20:47:37.575Z,10.73
2022-10-02T20:50:32.823Z,10.71
2022-10-02T20:53:35.329Z,10.74
2022-10-02T20:56:10.689Z,10.75
2022-10-02T20:59:07.097Z,10.79
2022-10-02T21:01:46.598Z,10.79
2022-10-02T21:04:51.516Z,10.79
2022-10-02T21:07:37.717Z,10.77
2022-10-02T21:10:45.610Z,10.79
2022-10-02T21:13:48.754Z,10.76
2022-10-02T21:16:50.388Z,10.79
2022-10-02T21:19:35.449Z,10.79
2022-10-02T21:22:46.527Z,10.82
2022-10-02T21:25:36.376Z,10.85
2022-10-02T21:28:33.531Z,10.86
2022-10-02T21:31:19.402Z,10.92
2022-10-02T21:33:58.082Z,10.92
2022-10-02T21:36:33.877Z,11.00
2022-10-02T21:39:30.523Z,11.05
2022-10-02T21:42:35.478Z,11.10
2022-10-02T21:45:37.528Z,11.14
2022-10-02T21:48:40.932Z,11.19
2022-10-02T21:51:45.246Z,11.23
2022-10-02T21:55:00.022Z,11.33
2022-10-02T21:58:00.960Z,11.42
2022-10-02T22:00:29.311Z,11.50
2022-10-02T22:03:32.864Z,11.59
2022-10-02T22:06:17.195Z,11.64
2022-10-02T22:08:59.004Z,11.70
2022-10-02T22:11:37.356Z,11.73
2022-10-02T22:14:09.130Z,11.77
2022-10-02T22:16:47.687Z,11.82
2022-10-02T22:19:31.359Z,11.83
2022-10-02T22:22:13.705Z,11.87
2022-10-02T22:25:03.428Z,11.88
2022-10-02T22:27:58.701Z,11.93
2022-10-02T22:30:28.506Z,11.93
2022-10-02T22:33:17.170Z,11.96
2022-10-02T22:36:09.062Z,12.00
2022-10-02T22:38:37.949Z,12.06
2022-10-02T22:41:17.954Z,12.08
2022-10-02T22:43:51.507Z,12.11
2022-10-02T22:46:29.537Z,12.21
2022-10-02T22:49:00.839Z,12.26
2022-10-02T22:51:37.926Z,12.32
2022-10-02T22:54:18.381Z,12.38
2022-10-02T22:56:53.263Z,12.32
2022-10-02T22:59:29.932Z,12.50
2022-10-02T23:02:04.568Z,12.53
2022-10-02T23:04:39.363Z,12.57
2022-10-02T23:07:14.141Z,12.60
2022-10-02T23:09:50.304Z,12.63
2022-10-02T23:12:27.954Z,12.54
2022-10-02T23:15:15.318Z,12.61
2022-10-02T23:17:45.830Z,12.70
2022-10-02T23:20:19.917Z,12.71
2022-10-02T23:22:53.117Z,12.78
2022-10-02T23:25:28.017Z,12.74
2022-10-02T23:28:02.602Z,12.81
2022-10-02T23:30:36.443Z,12.84
2022-10-02T23:33:14.178Z,12.87
2022-10-02T23:35:49.026Z,12.91
2022-10-02T23:38:23.934Z,12.82
2022-10-02T23:41:21.254Z,12.97
2022-10-02T23:44:01.599Z,12.98
2022-10-02T23:46:33.847Z,13.00
2022-10-02T23:49:02.479Z,13.03
2022-10-02T23:51:41.587Z,13.03
2022-10-02T23:54:34.739Z,12.94
2022-10-02T23:57:20.986Z,13.02
